N1LMA Westerly RI US current weather conditions

sailwx.info

Wind from 119 at 2 knots gusting 5

Air temperature 5.6° C
Dewpoint 4.4° C

Last reported at 2019-Dec-13 22:10 UTC.
Time now 2019-Dec-13 23:13 UTC

Location: N 41°24' W 071°49'.
View on Google Maps.

See reports from other nearby stations

  
Tides and Currents Weather Stations Pressure Air Temp Water Temp Dewpoint Dewpoint Depression Visibility Wind Speed Wind Dir Waves Ship Positions
date/time (UTC)wind fromknots sea level pressurealtimeterstation pressurevisibilityair tempwater tempwave heightnotes
2019-Dec-13 22:10 119 2 gusting 5 5.6
2019-Dec-13 22:05 106 1 gusting 4 5.6
2019-Dec-13 22:00 098 3 gusting 5 5.6
2019-Dec-13 21:55 121 2 gusting 5 5.6
2019-Dec-13 21:50 107 2 gusting 5 5.6
2019-Dec-13 21:45 086 3 gusting 5 5.6
2019-Dec-13 21:40 097 2 gusting 4 5.6
2019-Dec-13 21:35 070 1 gusting 6 5.6
2019-Dec-13 21:30 102 4 gusting 5 5.6
2019-Dec-13 21:25 093 2 gusting 4 5.6
2019-Dec-13 21:20 091 3 gusting 5 5.6
2019-Dec-13 21:15 083 1 gusting 2 5.6
2019-Dec-13 21:10 099 2 gusting 4 5.6
2019-Dec-13 21:05 095 3 gusting 5 5.6
2019-Dec-13 21:00 103 2 gusting 4 5.6
2019-Dec-13 20:55 092 2 gusting 4 5.6
2019-Dec-13 20:50 065 2 gusting 5 5.6
2019-Dec-13 20:45 083 1 gusting 4 5.6
2019-Dec-13 20:40 086 2 gusting 5 5.6
2019-Dec-13 20:35 102 2 gusting 4 5.6
2019-Dec-13 20:30 075 2 gusting 5 5.6
2019-Dec-13 20:25 062 0 gusting 2 6.1
2019-Dec-13 20:20 110 1 gusting 2 6.1
2019-Dec-13 20:15 089 2 gusting 5 6.1
2019-Dec-13 20:10 091 1 gusting 4 6.1
2019-Dec-13 20:05 095 2 gusting 4 6.1
2019-Dec-13 20:00 078 3 gusting 6 6.1
2019-Dec-13 19:55 099 2 gusting 6 6.1
2019-Dec-13 19:50 108 2 gusting 5 6.7
2019-Dec-13 19:45 100 2 gusting 5 6.7
2019-Dec-13 19:40 109 2 gusting 5 6.7
2019-Dec-13 19:35 100 4 gusting 5 6.7
2019-Dec-13 19:30 097 2 gusting 5 6.1
2019-Dec-13 19:25 095 2 gusting 5 6.1
2019-Dec-13 19:20 098 2 gusting 4 6.1
2019-Dec-13 19:15 093 0 gusting 2 6.1
2019-Dec-13 19:10 079 1 gusting 4 6.1
2019-Dec-13 19:05 099 1 gusting 2 6.1
2019-Dec-13 19:00 094 0 gusting 2 6.1
2019-Dec-13 18:55 062 0 gusting 2 6.1
2019-Dec-13 18:50 062 6.1
2019-Dec-13 18:45 062 6.1
2019-Dec-13 18:40 103 0 gusting 1 6.1
2019-Dec-13 18:35 097 6.1
2019-Dec-13 18:30 097 6.1
2019-Dec-13 18:25 079 1 gusting 4 5.6
2019-Dec-13 18:20 5.6
2019-Dec-13 18:15 5.6
2019-Dec-13 18:10 5.6
2019-Dec-13 18:05 5.0
2019-Dec-13 18:00 5.0
2019-Dec-13 17:55 5.0
2019-Dec-13 17:50 5.0
2019-Dec-13 17:45 5.0
2019-Dec-13 17:40 5.0
2019-Dec-13 17:35 4.4
2019-Dec-13 17:30 4.4
2019-Dec-13 17:25 4.4
2019-Dec-13 17:20 4.4
2019-Dec-13 17:15 4.4
2019-Dec-13 17:10 4.4
2019-Dec-13 17:05 4.4
2019-Dec-13 17:00 5.0
2019-Dec-13 16:55 5.0
2019-Dec-13 16:50 5.6
2019-Dec-13 16:45 5.0
2019-Dec-13 16:40 5.0
2019-Dec-13 16:35 4.4
2019-Dec-13 16:30 3.9
2019-Dec-13 16:25 3.9
2019-Dec-13 16:20 3.3
2019-Dec-13 16:15 3.3
2019-Dec-13 16:10 2.2
2019-Dec-13 16:05 2.2
2019-Dec-13 16:00 2.2
2019-Dec-13 15:55 2.8
2019-Dec-13 15:50 2.8
2019-Dec-13 15:45 2.8
2019-Dec-13 15:40 2.2
2019-Dec-13 15:35 2.2
2019-Dec-13 15:30 2.2
2019-Dec-13 15:25 2.2
2019-Dec-13 15:20 2.2
2019-Dec-13 15:15 2.2
2019-Dec-13 15:10 1.7
2019-Dec-13 15:05 1.7
2019-Dec-13 15:00 1.7
2019-Dec-13 14:55 1.1
2019-Dec-13 14:50 0.6
2019-Dec-13 14:45 -0.6
2019-Dec-13 14:40 -0.6
2019-Dec-13 14:35 -0.0
2019-Dec-13 14:30 -0.6
2019-Dec-13 14:25 -0.6
2019-Dec-13 14:20 -1.1
2019-Dec-13 14:15 -1.1
2019-Dec-13 14:10 -1.1
2019-Dec-13 14:05 -1.7
2019-Dec-13 14:00 -2.2
2019-Dec-13 13:55 -2.2
2019-Dec-13 13:50 -2.2
2019-Dec-13 13:45 -2.2
2019-Dec-13 13:40 -2.8
2019-Dec-13 13:35 -2.8
2019-Dec-13 13:30 -3.3
2019-Dec-13 13:25 -3.3
2019-Dec-13 13:20 -3.9
2019-Dec-13 13:15 -3.9
2019-Dec-13 13:10 -4.4
2019-Dec-13 13:05 -5.0
2019-Dec-13 13:00 -5.0
2019-Dec-13 12:55 -4.4
2019-Dec-13 12:50 -4.4
2019-Dec-13 12:45 -5.0
2019-Dec-13 12:40 -5.0
2019-Dec-13 12:35 -5.0
2019-Dec-13 12:30 -5.6
2019-Dec-13 12:25 -5.6
2019-Dec-13 12:20 -5.6
2019-Dec-13 12:15 -5.6
2019-Dec-13 12:10 -5.6
2019-Dec-13 12:05 -5.6
2019-Dec-13 12:00 -5.6
2019-Dec-13 11:55 -5.0
2019-Dec-13 11:50 -5.6
2019-Dec-13 11:45 -5.0
2019-Dec-13 11:40 -5.0
2019-Dec-13 11:35 -5.0
2019-Dec-13 11:30 -5.6
2019-Dec-13 11:25 -5.6
2019-Dec-13 11:20 -5.0
2019-Dec-13 11:15 -5.0
2019-Dec-13 11:10 -5.0
2019-Dec-13 11:05 -5.0
2019-Dec-13 11:00 -5.0
2019-Dec-13 10:55 -5.0
2019-Dec-13 10:50 -5.6
2019-Dec-13 10:45 -5.6
2019-Dec-13 10:40 -5.6
2019-Dec-13 10:35 -5.0
2019-Dec-13 10:30 -5.6
2019-Dec-13 10:25 -5.6
2019-Dec-13 10:20 -5.0
2019-Dec-13 10:15 -5.0
2019-Dec-13 10:10 -5.0
2019-Dec-13 10:05 -5.6
2019-Dec-13 10:00 -5.0
2019-Dec-13 09:55 -5.0
2019-Dec-13 09:50 -5.0
2019-Dec-13 09:45 -5.0
2019-Dec-13 09:40 -5.0
2019-Dec-13 09:35 -5.0
2019-Dec-13 09:30 -5.6
2019-Dec-13 09:25 -5.0
2019-Dec-13 09:20 -5.6
2019-Dec-13 09:15 -5.6
2019-Dec-13 09:10 -5.6
2019-Dec-13 09:05 -5.6
2019-Dec-13 09:00 -5.6
2019-Dec-13 08:55 -5.6
2019-Dec-13 08:50 -5.6
2019-Dec-13 08:45 -5.6
2019-Dec-13 08:40 -5.6
2019-Dec-13 08:35 -6.1
2019-Dec-13 08:30 -6.1
2019-Dec-13 08:25 -6.1
2019-Dec-13 08:20 -6.1
2019-Dec-13 08:15 -6.1
2019-Dec-13 08:10 -6.1
2019-Dec-13 08:05 -6.1
2019-Dec-13 08:00 -6.7
2019-Dec-13 07:55 -6.7
2019-Dec-13 07:50 -6.7
2019-Dec-13 07:45 -6.7
2019-Dec-13 07:40 -6.7
2019-Dec-13 07:35 -6.7
2019-Dec-13 07:30 -6.7
2019-Dec-13 07:25 -6.7
2019-Dec-13 07:20 -6.7
2019-Dec-13 07:05 -6.7
2019-Dec-13 07:00 -6.7
2019-Dec-13 06:55 -6.7
2019-Dec-13 06:50 -6.7
2019-Dec-13 06:45 -6.7
2019-Dec-13 06:40 -6.7
2019-Dec-13 06:35 -6.7
2019-Dec-13 06:30 -6.7
2019-Dec-13 06:25 -6.7
2019-Dec-13 06:20 -7.2
2019-Dec-13 06:15 -6.7
2019-Dec-13 06:10 -7.2
2019-Dec-13 06:05 -7.2
2019-Dec-13 06:00 -7.2
2019-Dec-13 05:55 -7.2
2019-Dec-13 05:50 -7.2
2019-Dec-13 05:45 -7.2
2019-Dec-13 05:40 -7.2
2019-Dec-13 05:35 -7.2
2019-Dec-13 05:30 -7.2
2019-Dec-13 05:25 -7.2
2019-Dec-13 05:20 -7.2
2019-Dec-13 05:10 -7.2
2019-Dec-13 05:05 -7.2
2019-Dec-13 05:00 -7.2
2019-Dec-13 04:55 -7.2
2019-Dec-13 04:50 -7.2
2019-Dec-13 04:45 -7.2
2019-Dec-13 04:40 -7.2
2019-Dec-13 04:35 -7.2
2019-Dec-13 04:30 -7.2
2019-Dec-13 04:25 -7.2
2019-Dec-13 04:20 -7.2
2019-Dec-13 04:15 -7.2
2019-Dec-13 04:10 -6.7
2019-Dec-13 04:05 -7.2
2019-Dec-13 04:00 -7.2
2019-Dec-13 03:55 -7.2
2019-Dec-13 03:50 -7.2
2019-Dec-13 03:45 -7.2
2019-Dec-13 03:40 -7.2
2019-Dec-13 03:35 -6.7
2019-Dec-13 03:30 -7.2
2019-Dec-13 03:25 -7.2
2019-Dec-13 03:20 -7.2
2019-Dec-13 03:15 -6.7
2019-Dec-13 03:10 -6.7
2019-Dec-13 03:05 -6.7
2019-Dec-13 03:00 -6.7
2019-Dec-13 02:55 -6.7
2019-Dec-13 02:50 -6.7
2019-Dec-13 02:45 -6.7
2019-Dec-13 02:40 -6.7
2019-Dec-13 02:35 -6.7
2019-Dec-13 02:30 -6.7
2019-Dec-13 02:25 -6.7
2019-Dec-13 02:20 -6.7
2019-Dec-13 02:15 -6.7
2019-Dec-13 02:10 -6.7
2019-Dec-13 02:05 -6.1
2019-Dec-13 02:00 -6.1
2019-Dec-13 01:55 -6.1
2019-Dec-13 01:50 -6.1
2019-Dec-13 01:45 -6.1
2019-Dec-13 01:40 -6.1
2019-Dec-13 01:35 -6.1
2019-Dec-13 01:30 -6.1
2019-Dec-13 01:25 -6.1
2019-Dec-13 01:20 -6.1
2019-Dec-13 01:15 -6.1
2019-Dec-13 01:10 -6.7
2019-Dec-13 01:05 -6.1
2019-Dec-13 01:00 -6.1
2019-Dec-13 00:55 -6.1
2019-Dec-13 00:50 -5.6
2019-Dec-13 00:45 -5.6
2019-Dec-13 00:40 -6.1
2019-Dec-13 00:35 -5.6
2019-Dec-13 00:30 -5.6
2019-Dec-13 00:25 -5.6
2019-Dec-13 00:20 -5.6
2019-Dec-13 00:15 -5.6
2019-Dec-13 00:10 -5.6
2019-Dec-13 00:05 -5.6
2019-Dec-13 00:00 -5.6
2019-Dec-12 23:55 -5.6
2019-Dec-12 23:50 -5.6
2019-Dec-12 23:45 -5.0
2019-Dec-12 23:40 -5.0
2019-Dec-12 23:35 -5.0
2019-Dec-12 23:30 -4.4
2019-Dec-12 23:25 -4.4
2019-Dec-12 23:20 -4.4
2019-Dec-12 23:15 -4.4
2019-Dec-12 23:10 -4.4
2019-Dec-12 23:05 -4.4
2019-Dec-12 23:00 -4.4
2019-Dec-12 22:55 -3.9
2019-Dec-12 22:50 -3.9
2019-Dec-12 22:45 -3.9
2019-Dec-12 22:40 -3.3
2019-Dec-12 22:35 -3.3
2019-Dec-12 22:30 -3.3
2019-Dec-12 22:25 -3.3
2019-Dec-12 22:20 -2.8
2019-Dec-12 22:15 -2.8
2019-Dec-12 22:10 -3.3
2019-Dec-12 22:05 -2.8
2019-Dec-12 22:00 -3.3
2019-Dec-12 21:55 -2.2
2019-Dec-12 21:50 -2.2
2019-Dec-12 21:45 -2.2
2019-Dec-12 21:40 -1.7
2019-Dec-12 21:35 -1.7
2019-Dec-12 21:30 -1.1
2019-Dec-12 21:25 -0.6
2019-Dec-12 21:20 -0.0
2019-Dec-12 21:15 0.6
2019-Dec-12 21:10 0.6
2019-Dec-12 21:05 -0.0
2019-Dec-12 21:00 0.6
2019-Dec-12 20:55 0.6
2019-Dec-12 20:50 0.6
2019-Dec-12 20:45 1.1
2019-Dec-12 20:40 1.1
2019-Dec-12 20:35 1.1
2019-Dec-12 20:30 1.1
2019-Dec-12 20:25 1.1
2019-Dec-12 20:20 1.7
2019-Dec-12 20:15 1.7
2019-Dec-12 20:10 1.1
2019-Dec-12 20:05 1.1
2019-Dec-12 20:00 1.1
2019-Dec-12 19:55 1.1
2019-Dec-12 19:50 1.1
2019-Dec-12 19:45 1.7
2019-Dec-12 19:40 1.1
2019-Dec-12 19:35 1.1
2019-Dec-12 19:30 1.1
2019-Dec-12 19:25 1.1
2019-Dec-12 19:20 242 1 gusting 2 0.6
2019-Dec-12 19:15 240 0 gusting 1 0.6
2019-Dec-12 19:10 335 0.6
2019-Dec-12 19:05 335 0.6
2019-Dec-12 19:00 335 0 gusting 4 0.6
2019-Dec-12 18:55 342 0.6
2019-Dec-12 18:50 297 0 gusting 2 0.6
2019-Dec-12 18:45 303 0 gusting 2 0.6
2019-Dec-12 18:40 303 0.6
2019-Dec-12 18:35 299 0 gusting 2 -0.0
2019-Dec-12 18:30 349 0 gusting 2 -0.0
2019-Dec-12 18:25 278 0 gusting 4 -0.0
2019-Dec-12 18:20 263 -0.0
2019-Dec-12 18:15 010 0 gusting 2 -0.0
2019-Dec-12 18:10 051 1 gusting 6 -0.0
2019-Dec-12 18:05 294 0 gusting 4 -0.6
2019-Dec-12 18:00 007 0 gusting 2 -0.6
2019-Dec-12 17:55 013 0 gusting 4 -0.6
2019-Dec-12 17:50 325 -0.6
2019-Dec-12 17:45 024 1 gusting 5 -0.6
2019-Dec-12 17:40 018 -0.6
2019-Dec-12 17:35 339 0 gusting 6 -0.6
2019-Dec-12 17:30 288 1 gusting 4 -0.6
2019-Dec-12 17:25 302 1 gusting 5 -0.6
2019-Dec-12 17:20 338 2 gusting 6 -0.6
2019-Dec-12 17:15 001 2 gusting 5 -0.6
2019-Dec-12 17:10 027 0 gusting 5 -0.6
2019-Dec-12 17:05 310 1 gusting 6 -0.6
2019-Dec-12 17:00 354 1 gusting 6 -0.6
2019-Dec-12 16:55 317 1 gusting 5 -1.1
2019-Dec-12 16:50 311 1 gusting 4 -1.1
2019-Dec-12 16:45 328 0 gusting 5 -1.1
2019-Dec-12 16:40 301 1 gusting 4 -1.1
2019-Dec-12 16:35 317 1 gusting 5 -1.1
2019-Dec-12 16:30 292 1 gusting 5 -1.1
2019-Dec-12 16:25 358 0 gusting 5 -1.1
2019-Dec-12 16:20 352 0 gusting 5 -1.1
2019-Dec-12 16:15 315 1 gusting 5 -1.1
2019-Dec-12 16:10 344 1 gusting 6 -1.1
2019-Dec-12 16:05 339 2 gusting 6 -1.1
2019-Dec-12 16:00 -1.1
2019-Dec-12 15:55 347 2 gusting 6 -1.7
2019-Dec-12 15:50 336 2 gusting 7 -1.7
2019-Dec-12 15:45 020 4 gusting 7 -1.7
2019-Dec-12 15:40 333 1 gusting 5 -2.2
2019-Dec-12 15:35 344 0 gusting 4 -2.2
2019-Dec-12 15:30 047 0 gusting 4 -2.2
2019-Dec-12 15:25 353 0 gusting 6 -1.7
2019-Dec-12 15:20 309 0 gusting 6 -1.7
2019-Dec-12 15:15 013 0 gusting 5 -2.2
2019-Dec-12 15:10 012 1 gusting 5 -2.2
2019-Dec-12 15:05 011 2 gusting 6 -2.2
2019-Dec-12 15:00 330 1 gusting 10 -2.2
2019-Dec-12 14:55 351 1 gusting 5 -2.2
2019-Dec-12 14:50 253 0 gusting 4 -2.2
2019-Dec-12 14:45 010 0 gusting 4 -2.2
2019-Dec-12 14:40 359 1 gusting 5 -2.2
2019-Dec-12 14:35 001 2 gusting 5 -2.8
2019-Dec-12 14:30 345 3 gusting 7 -2.8
2019-Dec-12 14:25 354 3 gusting 7 -2.8
2019-Dec-12 14:20 341 1 gusting 6 -2.8
2019-Dec-12 14:15 328 2 gusting 6 -2.8
2019-Dec-12 14:10 009 1 gusting 4 -2.2
2019-Dec-12 14:05 223 1 gusting 6 -2.8
2019-Dec-12 14:00 304 2 gusting 5 -2.8
2019-Dec-12 13:55 359 -2.8
2019-Dec-12 13:50 006 0 gusting 5 -2.8
2019-Dec-12 13:45 321 -2.8
2019-Dec-12 13:40 274 0 gusting 2 -2.8
2019-Dec-12 13:35 328 2 gusting 5 -3.3
2019-Dec-12 13:30 266 1 gusting 5 -3.3
2019-Dec-12 13:25 324 1 gusting 5 -3.3
2019-Dec-12 13:20 281 1 gusting 5 -3.9
2019-Dec-12 13:15 308 1 gusting 6 -3.9
2019-Dec-12 13:10 274 1 gusting 6 -3.9
2019-Dec-12 13:05 348 0 gusting 4 -3.9
2019-Dec-12 13:00 346 1 gusting 4 -4.4
2019-Dec-12 12:55 010 0 gusting 5 -4.4
2019-Dec-12 12:50 334 1 gusting 5 -5.0
2019-Dec-12 12:45 337 0 gusting 6 -5.6
2019-Dec-12 12:40 355 0 gusting 1 -5.6
2019-Dec-12 12:35 288 0 gusting 4 -5.6
2019-Dec-12 12:30 351 0 gusting 2 -5.6
2019-Dec-12 12:25 264 -5.0
2019-Dec-12 12:20 256 -5.6
2019-Dec-12 12:15 005 -5.0
2019-Dec-12 12:10 346 0 gusting 4 -5.6
2019-Dec-12 12:05 005 0 gusting 5 -5.6
2019-Dec-12 12:00 290 1 gusting 6 -5.6
2019-Dec-12 11:55 330 0 gusting 2 -5.6
2019-Dec-12 11:50 304 -5.0
2019-Dec-12 11:45 336 -5.0
2019-Dec-12 11:40 346 1 gusting 5 -5.0
2019-Dec-12 11:35 280 -5.0
2019-Dec-12 11:30 350 -4.4
2019-Dec-12 11:25 318 0 gusting 4 -4.4
2019-Dec-12 11:20 291 1 gusting 5 -5.0
2019-Dec-12 11:15 323 1 gusting 6 -5.0
2019-Dec-12 11:10 319 1 gusting 6 -5.0
2019-Dec-12 11:05 349 0 gusting 5 -5.0
2019-Dec-12 11:00 323 0 gusting 5 -5.0
2019-Dec-12 10:55 336 1 gusting 5 -4.4
2019-Dec-12 10:50 028 1 gusting 5 -4.4
2019-Dec-12 10:45 306 0 gusting 5 -4.4
2019-Dec-12 10:40 252 -5.0
2019-Dec-12 10:35 294 -4.4
2019-Dec-12 10:30 310 0 gusting 4 -4.4
2019-Dec-12 10:25 002 2 gusting 6 -4.4
2019-Dec-12 10:20 354 0 gusting 5 -4.4
2019-Dec-12 10:15 289 2 gusting 5 -4.4
2019-Dec-12 10:10 280 2 gusting 5 -5.0
2019-Dec-12 10:05 346 1 gusting 5 -4.4
2019-Dec-12 09:45 227 1 gusting 4 -4.4
2019-Dec-12 08:35 293 3 gusting 5 -5.6
2019-Dec-12 08:30 342 0 gusting 2 -5.0
2019-Dec-12 08:25 011 2 gusting 6 -4.4
2019-Dec-12 08:20 340 1 gusting 4 -4.4
2019-Dec-12 08:15 345 1 gusting 6 -4.4
2019-Dec-12 08:10 004 1 gusting 6 -4.4
2019-Dec-12 04:00 239 -1.7
2019-Dec-12 03:55 294 -1.7
2019-Dec-12 03:50 294 -1.1
2019-Dec-12 03:45 244 -1.1
2019-Dec-12 03:40 244 -1.1
2019-Dec-12 03:35 254 -1.1
2019-Dec-12 03:30 254 -1.1
2019-Dec-12 03:25 254 -1.1
2019-Dec-12 03:20 237 -1.1
2019-Dec-12 03:15 -0.0
2019-Dec-12 03:10 -0.0
2019-Dec-12 01:40 -3.9
2019-Dec-12 01:35 -3.9
2019-Dec-12 01:30 222 -3.9
2019-Dec-12 01:20 222 -4.4
2019-Dec-12 01:15 209 -5.0
2019-Dec-12 01:10 206 -5.0
2019-Dec-12 01:05 206 -5.6
2019-Dec-12 01:00 206 -6.1
2019-Dec-12 00:55 206 -5.6
2019-Dec-12 00:50 206 -6.7
2019-Dec-12 00:45 206 -5.6
2019-Dec-12 00:40 206 -5.6
2019-Dec-12 00:35 206 -5.6
2019-Dec-12 00:30 206 -5.6
2019-Dec-12 00:25 206 -5.6
2019-Dec-12 00:20 206 -6.1
2019-Dec-12 00:15 206 -5.6
2019-Dec-12 00:10 206 -5.6
2019-Dec-12 00:05 206 -6.1
2019-Dec-12 00:00 206 -6.7
2019-Dec-11 23:55 206 -5.0
2019-Dec-11 23:50 206 -4.4
2019-Dec-11 23:45 206 -3.9
2019-Dec-11 23:40 206 -3.3
2019-Dec-11 23:35 206 -3.3
2019-Dec-11 23:30 206 -3.3
2019-Dec-11 23:25 206 -4.4
2019-Dec-11 23:20 206 -3.9
2019-Dec-11 23:15 206 -3.9
2019-Dec-11 23:10 206 -3.3
2019-Dec-11 23:05 206 -3.9
2019-Dec-11 23:00 206 -3.3